Time;durP1;ratioP1;P1;durP2;ratioP2;P2;SDS_P1;SDS_P2;PMS_P1;PMS_P2;Temp;Humidity;BMP_temperature;BMP_pressure;BME280_temperature;BME280_humidity;BME280_pressure;Samples;Min_cycle;Max_cycle;Signal;HPM_P1;HPM_P2
2021/11/18 00:01:06;;;;;;;7.20;3.80;;;17.90;67.00;;;;;;5070499;28;20454;-77
2021/11/18 00:03:32;;;;;;;7.22;3.78;;;17.80;67.00;;;;;;5072966;28;20063;-77
2021/11/18 00:05:58;;;;;;;8.45;4.03;;;17.80;66.90;;;;;;5074005;28;20025;-77
2021/11/18 00:08:24;;;;;;;7.20;3.75;;;17.80;66.80;;;;;;5073348;28;20111;-77
2021/11/18 00:10:55;;;;;;;9.25;4.03;;;17.80;66.80;;;;;;5092710;28;20016;-77
2021/11/18 00:13:33;;;;;;;7.70;3.72;;;17.70;66.80;;;;;;5087319;28;20055;-77
2021/11/18 00:15:59;;;;;;;6.85;3.35;;;17.70;66.90;;;;;;5073582;28;20017;-77
2021/11/18 00:18:27;;;;;;;8.02;4.05;;;17.70;66.90;;;;;;5072648;28;20071;-77
2021/11/18 00:20:57;;;;;;;7.00;3.85;;;17.70;67.00;;;;;;5086410;28;20383;-77
2021/11/18 00:23:27;;;;;;;9.55;3.88;;;17.70;67.00;;;;;;5093709;28;20369;-77
2021/11/18 00:25:53;;;;;;;8.00;3.58;;;17.60;66.90;;;;;;5053603;28;20021;-77
2021/11/18 00:28:19;;;;;;;6.75;3.90;;;17.60;66.90;;;;;;5052912;28;20519;-77
2021/11/18 00:30:45;;;;;;;7.32;3.30;;;17.60;66.90;;;;;;5053537;28;20017;-77
2021/11/18 00:33:11;;;;;;;8.88;3.83;;;17.60;66.90;;;;;;5053201;28;20102;-77
2021/11/18 00:35:38;;;;;;;9.10;4.38;;;17.60;66.90;;;;;;5053819;28;20540;-77
2021/11/18 00:38:04;;;;;;;8.65;3.90;;;17.50;66.90;;;;;;5093491;28;20028;-77
2021/11/18 00:40:41;;;;;;;8.45;4.38;;;17.50;66.80;;;;;;5093317;28;20031;-77
2021/11/18 00:43:09;;;;;;;10.48;3.88;;;17.50;66.80;;;;;;5093421;28;20491;-77
2021/11/18 00:45:35;;;;;;;8.77;3.60;;;17.50;66.70;;;;;;5093555;28;20074;-77
2021/11/18 00:48:01;;;;;;;6.50;3.70;;;17.50;66.80;;;;;;5092996;28;20411;-77
2021/11/18 00:50:38;;;;;;;8.50;3.63;;;17.50;66.70;;;;;;5093736;28;20016;-77
2021/11/18 00:53:03;;;;;;;8.63;3.40;;;17.50;66.70;;;;;;5093288;28;20051;-77
2021/11/18 00:55:31;;;;;;;6.68;3.55;;;17.40;66.60;;;;;;5093358;28;20059;-77
2021/11/18 00:57:57;;;;;;;6.90;3.40;;;17.40;66.50;;;;;;5075704;28;20089;-77
2021/11/18 01:00:28;;;;;;;7.47;3.80;;;17.40;66.50;;;;;;5074780;28;20500;-77
2021/11/18 01:02:55;;;;;;;5.47;3.30;;;17.40;66.50;;;;;;5093005;28;20028;-77
2021/11/18 01:05:27;;;;;;;10.15;3.78;;;17.40;66.50;;;;;;5092763;28;20401;-77
2021/11/18 01:07:55;;;;;;;7.53;3.33;;;17.40;66.50;;;;;;5092981;28;20042;-77
2021/11/18 01:10:24;;;;;;;6.85;3.50;;;17.40;66.60;;;;;;5092841;28;20020;-77
2021/11/18 01:12:50;;;;;;;6.10;3.47;;;17.30;66.60;;;;;;5086694;28;20032;-77
2021/11/18 01:15:21;;;;;;;6.47;3.60;;;17.30;66.50;;;;;;5072491;28;20017;-77
2021/11/18 01:17:47;;;;;;;6.95;3.60;;;17.30;66.50;;;;;;5054511;28;20039;-77
2021/11/18 01:20:15;;;;;;;8.23;4.13;;;17.20;66.50;;;;;;5072160;28;20067;-77
2021/11/18 01:22:42;;;;;;;7.35;3.53;;;17.20;66.50;;;;;;5072506;28;20081;-77
2021/11/18 01:25:10;;;;;;;6.03;3.28;;;17.20;66.50;;;;;;5072304;28;20041;-77
2021/11/18 01:27:36;;;;;;;5.68;3.05;;;17.20;66.60;;;;;;5072485;28;20033;-77
2021/11/18 01:30:06;;;;;;;5.95;2.83;;;17.20;66.50;;;;;;5071315;28;20400;-77
2021/11/18 01:32:32;;;;;;;8.15;3.85;;;17.20;66.50;;;;;;5071937;28;20037;-77
2021/11/18 01:34:58;;;;;;;8.13;3.40;;;17.20;66.30;;;;;;5053926;28;20029;-77
2021/11/18 01:37:23;;;;;;;6.88;3.17;;;17.20;66.30;;;;;;5071955;28;20024;-77
2021/11/18 01:39:49;;;;;;;8.95;3.42;;;17.20;66.30;;;;;;5071704;28;20036;-77
2021/11/18 01:42:15;;;;;;;6.97;3.50;;;17.20;66.20;;;;;;5071632;28;20055;-77
2021/11/18 01:44:44;;;;;;;8.52;3.88;;;17.20;66.20;;;;;;5071598;28;20542;-77
2021/11/18 01:47:12;;;;;;;6.57;3.53;;;17.20;66.10;;;;;;5071642;28;20043;-76
2021/11/18 01:49:42;;;;;;;6.82;3.28;;;17.20;66.10;;;;;;5070944;28;20028;-77
2021/11/18 01:52:10;;;;;;;8.65;3.40;;;17.20;66.00;;;;;;5070708;28;20037;-77
2021/11/18 01:54:37;;;;;;;7.63;3.35;;;17.20;66.00;;;;;;5071267;28;20115;-77
2021/11/18 01:57:07;;;;;;;6.53;3.35;;;17.20;65.90;;;;;;5071581;28;20442;-77
2021/11/18 01:59:36;;;;;;;7.35;3.60;;;17.20;65.90;;;;;;5053493;28;20123;-77
2021/11/18 02:02:02;;;;;;;10.18;4.25;;;17.20;65.90;;;;;;5070508;28;20032;-77
2021/11/18 02:04:30;;;;;;;7.57;3.13;;;17.20;65.80;;;;;;5070709;28;20051;-77
2021/11/18 02:07:06;;;;;;;7.03;3.33;;;17.20;65.80;;;;;;5053273;28;20078;-77
2021/11/18 02:09:42;;;;;;;7.65;3.53;;;17.20;65.80;;;;;;5071217;28;20029;-77
2021/11/18 02:12:11;;;;;;;6.03;3.17;;;17.20;65.70;;;;;;5071048;28;20064;-77
2021/11/18 02:14:37;;;;;;;8.35;3.58;;;17.20;65.60;;;;;;5071209;28;20032;-77
2021/11/18 02:17:07;;;;;;;7.43;3.25;;;17.20;65.50;;;;;;5070835;28;20029;-77
2021/11/18 02:19:43;;;;;;;5.90;3.10;;;17.20;65.50;;;;;;5071175;28;20094;-77
2021/11/18 02:22:09;;;;;;;6.35;3.20;;;17.20;65.50;;;;;;5071131;28;20108;-77
2021/11/18 02:24:42;;;;;;;6.10;3.38;;;17.20;65.50;;;;;;5070792;28;20028;-77
2021/11/18 02:27:09;;;;;;;7.80;3.80;;;17.20;65.50;;;;;;5071072;28;20032;-77
2021/11/18 02:29:35;;;;;;;8.77;3.47;;;17.30;65.50;;;;;;5070664;28;20380;-77
2021/11/18 02:32:10;;;;;;;6.38;3.38;;;17.20;65.40;;;;;;5070063;28;20400;-77
2021/11/18 02:34:44;;;;;;;8.18;3.50;;;17.20;65.30;;;;;;5070556;28;20044;-77
2021/11/18 02:37:10;;;;;;;6.95;3.60;;;17.20;65.30;;;;;;5071156;28;20040;-77
2021/11/18 02:39:36;;;;;;;7.25;3.40;;;17.20;65.20;;;;;;5070727;28;20032;-77
2021/11/18 02:42:04;;;;;;;8.27;3.80;;;17.20;65.20;;;;;;5070771;28;20036;-77
2021/11/18 02:44:31;;;;;;;6.70;3.45;;;17.20;65.10;;;;;;5071154;28;20024;-76
2021/11/18 02:46:58;;;;;;;6.63;3.20;;;17.30;65.20;;;;;;5071312;28;20036;-77
2021/11/18 02:49:23;;;;;;;6.63;3.17;;;17.30;65.20;;;;;;5070279;28;20024;-77
2021/11/18 02:51:49;;;;;;;8.73;4.32;;;17.20;65.10;;;;;;5070672;28;20044;-77
2021/11/18 02:54:15;;;;;;;10.30;4.10;;;17.20;65.00;;;;;;5069743;28;20077;-77
2021/11/18 02:56:41;;;;;;;7.57;3.42;;;17.30;65.10;;;;;;5070978;28;20028;-77
2021/11/18 02:59:07;;;;;;;8.23;3.70;;;17.30;65.00;;;;;;5070529;28;20031;-77
2021/11/18 03:01:43;;;;;;;6.72;3.42;;;17.20;64.90;;;;;;5070622;28;20029;-77
2021/11/18 03:04:09;;;;;;;6.50;3.55;;;17.30;64.90;;;;;;5073749;28;20024;-77
2021/11/18 03:06:35;;;;;;;7.78;3.28;;;17.30;64.90;;;;;;5074059;28;20135;-77
2021/11/18 03:09:01;;;;;;;8.02;3.85;;;17.30;64.90;;;;;;5074788;28;20092;-77
2021/11/18 03:11:28;;;;;;;7.90;3.15;;;17.30;64.90;;;;;;5075196;28;20090;-77
2021/11/18 03:13:54;;;;;;;7.45;3.17;;;17.30;64.80;;;;;;5074631;28;20508;-77
2021/11/18 03:16:21;;;;;;;8.07;3.58;;;17.30;64.70;;;;;;5070077;28;20020;-77
2021/11/18 03:18:47;;;;;;;6.57;3.50;;;17.30;64.70;;;;;;5072318;28;20396;-77
2021/11/18 03:21:24;;;;;;;6.68;3.20;;;17.30;64.70;;;;;;5056301;28;20400;-77
2021/11/18 03:23:50;;;;;;;7.78;4.07;;;17.30;64.60;;;;;;5056072;28;20116;-77
2021/11/18 03:26:19;;;;;;;7.10;3.33;;;17.30;64.60;;;;;;5074497;28;20024;-77
2021/11/18 03:28:45;;;;;;;5.85;2.60;;;17.30;64.60;;;;;;5074642;28;20032;-77
2021/11/18 03:31:12;;;;;;;7.32;3.40;;;17.30;64.50;;;;;;5055529;28;20028;-77
2021/11/18 03:33:48;;;;;;;7.78;3.08;;;17.30;64.40;;;;;;5074326;28;20484;-77
2021/11/18 03:36:14;;;;;;;;;;;17.30;65.10;;;;;;5074672;28;20035;-77
2021/11/18 03:38:41;;;;;;;5.05;2.65;;;17.30;64.30;;;;;;5074545;28;19909;-77
2021/11/18 03:41:08;;;;;;;8.15;3.30;;;17.40;64.40;;;;;;5074253;28;20055;-77
2021/11/18 03:43:37;;;;;;;6.40;3.15;;;17.40;64.30;;;;;;5056456;28;20556;-77
2021/11/18 03:46:03;;;;;;;8.20;3.40;;;17.40;64.40;;;;;;5055452;28;20033;-77
2021/11/18 03:48:30;;;;;;;5.80;3.17;;;17.40;64.40;;;;;;5074126;28;20492;-77
2021/11/18 03:50:57;;;;;;;7.70;3.58;;;17.40;64.30;;;;;;5056119;28;20027;-77
2021/11/18 03:53:23;;;;;;;7.80;3.33;;;17.40;64.30;;;;;;5074042;28;20020;-77
2021/11/18 03:55:49;;;;;;;6.40;3.40;;;17.40;64.20;;;;;;5074119;28;20578;-77
2021/11/18 03:58:15;;;;;;;8.80;3.33;;;17.40;64.20;;;;;;5073943;28;20017;-77
2021/11/18 04:00:42;;;;;;;10.02;3.72;;;17.40;64.20;;;;;;5073461;28;20040;-77
2021/11/18 04:03:10;;;;;;;5.82;3.20;;;17.40;64.20;;;;;;5073564;28;20415;-77
2021/11/18 04:05:38;;;;;;;4.82;2.78;;;17.40;64.10;;;;;;5054596;28;20506;-77
2021/11/18 04:08:04;;;;;;;7.68;3.53;;;17.40;64.00;;;;;;5073248;28;20063;-77
2021/11/18 04:10:31;;;;;;;7.30;3.55;;;17.40;64.00;;;;;;5074128;28;20025;-77
2021/11/18 04:12:57;;;;;;;7.15;3.20;;;17.40;64.00;;;;;;5074213;28;20024;-77
2021/11/18 04:15:25;;;;;;;8.95;4.18;;;17.40;64.00;;;;;;5072720;28;20032;-77
2021/11/18 04:17:51;;;;;;;5.65;3.08;;;17.40;64.00;;;;;;5073886;28;20512;-77
2021/11/18 04:20:18;;;;;;;7.68;3.08;;;17.40;63.90;;;;;;5073095;28;20107;-77
2021/11/18 04:22:46;;;;;;;7.47;3.25;;;17.40;64.00;;;;;;5073694;28;20053;-77
2021/11/18 04:25:14;;;;;;;9.10;3.55;;;17.40;63.80;;;;;;5073075;28;20032;-77
2021/11/18 04:27:41;;;;;;;8.80;3.63;;;17.40;63.90;;;;;;5073307;28;20121;-77
2021/11/18 04:30:10;;;;;;;7.00;3.25;;;17.40;63.80;;;;;;5053281;28;20388;-77
2021/11/18 04:32:36;;;;;;;7.28;3.30;;;17.40;63.80;;;;;;5053470;28;20025;-77
2021/11/18 04:35:03;;;;;;;7.03;3.22;;;17.50;63.90;;;;;;5054612;28;20028;-77
2021/11/18 04:37:28;;;;;;;7.43;3.10;;;17.40;63.80;;;;;;5055350;28;20024;-77
2021/11/18 04:39:54;;;;;;;6.53;3.40;;;17.40;63.80;;;;;;5072806;28;20058;-77
2021/11/18 04:42:20;;;;;;;6.80;3.20;;;17.50;63.80;;;;;;5055174;28;20111;-77
2021/11/18 04:44:46;;;;;;;7.18;3.08;;;17.50;63.80;;;;;;5072461;28;20017;-77
2021/11/18 04:47:13;;;;;;;6.88;3.17;;;17.50;63.80;;;;;;5072397;28;20043;-77
2021/11/18 04:49:41;;;;;;;9.25;3.33;;;17.50;63.80;;;;;;5072887;28;20043;-77
2021/11/18 04:52:08;;;;;;;5.72;2.65;;;17.50;63.70;;;;;;5072766;28;20021;-77
2021/11/18 04:54:34;;;;;;;6.30;3.28;;;17.50;63.70;;;;;;5072465;28;20020;-77
2021/11/18 04:57:01;;;;;;;6.80;3.22;;;17.50;63.70;;;;;;5073215;28;20527;-77
2021/11/18 04:59:26;;;;;;;7.50;3.80;;;17.50;63.60;;;;;;5072785;28;20480;-77
2021/11/18 05:01:52;;;;;;;6.82;3.15;;;17.50;63.60;;;;;;5072224;28;20032;-77
2021/11/18 05:04:18;;;;;;;7.80;2.92;;;17.50;63.60;;;;;;5072001;28;20107;-77
2021/11/18 05:06:45;;;;;;;8.55;3.20;;;17.50;63.50;;;;;;5072314;28;20115;-77
2021/11/18 05:09:11;;;;;;;8.68;3.35;;;17.50;63.50;;;;;;5054379;28;20021;-77
2021/11/18 05:11:38;;;;;;;5.85;2.85;;;17.50;63.50;;;;;;5072768;28;20025;-76
2021/11/18 05:14:04;;;;;;;8.25;2.85;;;17.50;63.40;;;;;;5072457;28;20023;-77
2021/11/18 05:16:30;;;;;;;5.75;2.95;;;17.50;63.40;;;;;;5072259;28;20032;-77
2021/11/18 05:18:56;;;;;;;7.28;3.13;;;17.50;63.40;;;;;;5072211;28;20114;-77
2021/11/18 05:21:25;;;;;;;8.30;2.90;;;17.50;63.30;;;;;;5071976;28;20064;-77
2021/11/18 05:23:52;;;;;;;6.43;3.03;;;17.50;63.20;;;;;;5072604;28;20431;-77
2021/11/18 05:26:20;;;;;;;7.82;3.50;;;17.50;63.20;;;;;;5052695;28;20025;-77
2021/11/18 05:28:46;;;;;;;5.38;2.60;;;17.50;63.20;;;;;;5072553;28;20505;-77
2021/11/18 05:31:14;;;;;;;7.63;2.67;;;17.50;63.20;;;;;;5071769;28;20031;-77
2021/11/18 05:33:40;;;;;;;4.95;2.60;;;17.50;63.20;;;;;;5071747;28;20024;-77
2021/11/18 05:36:06;;;;;;;7.82;3.28;;;17.50;63.10;;;;;;5071480;28;20060;-77
2021/11/18 05:38:32;;;;;;;6.97;2.75;;;17.50;63.10;;;;;;5071715;28;20515;-77
2021/11/18 05:40:59;;;;;;;6.80;2.90;;;17.50;63.10;;;;;;5072414;28;20052;-77
2021/11/18 05:43:28;;;;;;;5.68;2.60;;;17.50;63.20;;;;;;5071587;28;20429;-77
2021/11/18 05:45:54;;;;;;;7.93;3.35;;;17.50;63.10;;;;;;5070946;28;20037;-77
2021/11/18 05:48:21;;;;;;;7.15;2.92;;;17.50;63.10;;;;;;5071088;28;20037;-77
2021/11/18 05:50:55;;;;;;;7.85;2.80;;;17.50;63.00;;;;;;5070614;28;20043;-77
2021/11/18 05:53:29;;;;;;;7.90;2.70;;;17.50;63.10;;;;;;5071791;28;20523;-77
2021/11/18 05:55:56;;;;;;;5.95;2.92;;;17.60;63.00;;;;;;5071949;28;20013;-77
2021/11/18 05:58:22;;;;;;;6.63;3.13;;;17.60;62.90;;;;;;5071697;28;20021;-77
2021/11/18 06:00:48;;;;;;;7.47;3.03;;;17.60;62.90;;;;;;5070165;28;20500;-77
2021/11/18 06:03:14;;;;;;;5.03;2.67;;;17.60;62.70;;;;;;5070942;28;20078;-77
2021/11/18 06:05:40;;;;;;;6.85;3.28;;;17.70;62.80;;;;;;5071386;28;20388;-77
2021/11/18 06:08:06;;;;;;;5.18;2.50;;;17.70;62.70;;;;;;5070561;28;20150;-76
2021/11/18 06:10:33;;;;;;;8.07;2.75;;;17.70;62.70;;;;;;5069851;28;20025;-76
2021/11/18 06:13:00;;;;;;;5.55;2.70;;;17.70;62.70;;;;;;5070918;28;20029;-77
2021/11/18 06:15:27;;;;;;;5.95;2.95;;;17.70;62.70;;;;;;5071762;28;20028;-77
2021/11/18 06:17:52;;;;;;;5.43;2.90;;;17.70;62.60;;;;;;5071583;28;20086;-77
2021/11/18 06:20:19;;;;;;;5.78;2.47;;;17.80;62.70;;;;;;5070784;28;20052;-77
2021/11/18 06:22:46;;;;;;;5.35;2.50;;;17.80;62.70;;;;;;5071432;28;20024;-77
2021/11/18 06:25:15;;;;;;;5.32;2.75;;;17.80;62.70;;;;;;5071311;28;20024;-77
2021/11/18 06:27:43;;;;;;;4.90;2.50;;;17.80;62.70;;;;;;5071411;28;20028;-77
2021/11/18 06:30:16;;;;;;;5.15;2.88;;;17.80;62.70;;;;;;5071150;28;20037;-77
2021/11/18 06:32:42;;;;;;;7.82;2.92;;;17.80;62.60;;;;;;5071381;28;20048;-77
2021/11/18 06:35:08;;;;;;;5.82;2.80;;;17.80;62.70;;;;;;5052585;28;20028;-77
2021/11/18 06:37:34;;;;;;;6.80;2.78;;;17.80;62.60;;;;;;5070958;28;20029;-78
2021/11/18 06:39:59;;;;;;;8.25;3.10;;;17.90;62.70;;;;;;5071539;28;20032;-78
2021/11/18 06:42:25;;;;;;;7.55;2.42;;;17.90;62.70;;;;;;5071026;28;20021;-78
2021/11/18 06:44:51;;;;;;;6.18;2.20;;;17.90;62.70;;;;;;5071270;28;20024;-77
2021/11/18 06:47:17;;;;;;;4.95;2.55;;;18.00;62.80;;;;;;5070778;28;20040;-77
2021/11/18 06:49:44;;;;;;;5.90;2.72;;;18.00;62.70;;;;;;5070455;28;20086;-78
2021/11/18 06:52:11;;;;;;;6.70;2.22;;;18.00;63.00;;;;;;5070945;28;20028;-78
2021/11/18 06:54:37;;;;;;;6.20;2.80;;;18.10;63.20;;;;;;5070057;28;20472;-77
2021/11/18 06:57:04;;;;;;;6.63;2.42;;;18.10;63.00;;;;;;5070435;28;20055;-76
2021/11/18 06:59:31;;;;;;;6.63;2.72;;;18.10;62.80;;;;;;5071405;28;20017;-77
2021/11/18 07:01:56;;;;;;;5.85;2.35;;;18.10;62.70;;;;;;5070988;28;20031;-76
2021/11/18 07:04:23;;;;;;;4.43;2.60;;;18.20;63.00;;;;;;5069973;28;20020;-76
2021/11/18 07:06:49;;;;;;;9.23;3.15;;;18.20;63.10;;;;;;5070617;28;20424;-76
2021/11/18 07:09:15;;;;;;;7.25;2.42;;;18.20;63.20;;;;;;5070652;28;20047;-76
2021/11/18 07:11:41;;;;;;;11.02;3.35;;;18.20;63.40;;;;;;5070995;28;20021;-76
2021/11/18 07:14:06;;;;;;;7.38;2.60;;;18.20;63.50;;;;;;5073478;28;20033;-76
2021/11/18 07:16:33;;;;;;;7.18;2.67;;;18.20;63.70;;;;;;5084799;28;20083;-76
2021/11/18 07:18:59;;;;;;;7.40;2.92;;;18.20;63.70;;;;;;5088949;28;20032;-77
2021/11/18 07:21:25;;;;;;;5.68;2.25;;;18.20;63.60;;;;;;5080602;28;20162;-77
2021/11/18 07:23:55;;;;;;;9.15;2.97;;;18.20;63.70;;;;;;5091053;28;20479;-77
2021/11/18 07:26:21;;;;;;;6.43;2.90;;;18.20;63.50;;;;;;5090687;28;20070;-77
2021/11/18 07:28:47;;;;;;;6.32;2.58;;;18.20;63.60;;;;;;5091029;28;20052;-77
2021/11/18 07:31:14;;;;;;;6.78;2.45;;;18.20;63.70;;;;;;5090681;28;20020;-77
2021/11/18 07:33:41;;;;;;;6.97;2.65;;;18.20;63.70;;;;;;5090970;28;20450;-77
2021/11/18 07:36:07;;;;;;;5.18;2.45;;;18.10;63.80;;;;;;5090571;28;20077;-77
2021/11/18 07:38:34;;;;;;;7.72;2.50;;;18.10;63.70;;;;;;5090737;28;20043;-77
2021/11/18 07:41:00;;;;;;;7.50;2.53;;;18.10;63.60;;;;;;5088842;28;20038;-76
2021/11/18 07:43:29;;;;;;;7.55;2.55;;;18.10;63.60;;;;;;5087829;28;20048;-77
2021/11/18 07:45:58;;;;;;;4.65;2.25;;;18.10;63.50;;;;;;5090137;28;20403;-77
2021/11/18 07:48:24;;;;;;;5.63;2.55;;;18.10;63.30;;;;;;5088616;28;20043;-77
2021/11/18 07:50:50;;;;;;;7.50;2.90;;;18.10;63.30;;;;;;5083221;28;20024;-77
2021/11/18 07:53:16;;;;;;;6.32;2.15;;;18.00;63.10;;;;;;5074115;28;20103;-77
2021/11/18 07:55:43;;;;;;;6.60;2.58;;;18.00;62.90;;;;;;5078827;28;20031;-77
2021/11/18 07:58:09;;;;;;;7.43;3.67;;;18.00;62.70;;;;;;5084231;28;20036;-78
2021/11/18 08:00:35;;;;;;;9.05;2.95;;;18.00;63.60;;;;;;5074086;28;20016;-78
2021/11/18 08:03:09;;;;;;;8.25;3.55;;;18.00;63.40;;;;;;5073801;28;20036;-77
2021/11/18 08:05:35;;;;;;;7.47;3.03;;;18.00;63.20;;;;;;5077488;28;20056;-77
2021/11/18 08:08:01;;;;;;;7.70;3.60;;;17.90;63.20;;;;;;5073986;28;20037;-77
2021/11/18 08:10:27;;;;;;;11.13;3.47;;;17.90;63.20;;;;;;5073054;28;20020;-77
2021/11/18 08:12:52;;;;;;;6.63;3.60;;;17.90;63.30;;;;;;5073906;28;20495;-77
2021/11/18 08:15:18;;;;;;;7.72;3.60;;;17.90;63.30;;;;;;5073622;28;20024;-77
2021/11/18 08:17:45;;;;;;;7.13;2.90;;;17.90;63.20;;;;;;5073895;28;20025;-77
2021/11/18 08:20:12;;;;;;;7.38;2.70;;;17.80;63.10;;;;;;5073615;28;20024;-76
2021/11/18 08:22:38;;;;;;;6.13;2.88;;;17.90;63.20;;;;;;5073846;28;20099;-77
2021/11/18 08:25:04;;;;;;;6.75;2.75;;;17.80;63.10;;;;;;5073439;28;20498;-76
2021/11/18 08:27:32;;;;;;;7.57;3.13;;;17.80;63.20;;;;;;5055710;28;20059;-77
2021/11/18 08:29:58;;;;;;;9.25;2.90;;;17.80;63.10;;;;;;5073941;28;20020;-77
2021/11/18 08:32:24;;;;;;;6.95;3.28;;;17.80;63.10;;;;;;5073341;28;20033;-77
2021/11/18 08:34:50;;;;;;;8.05;3.33;;;17.70;63.20;;;;;;5073565;28;20752;-77
2021/11/18 08:37:18;;;;;;;10.50;3.10;;;17.70;63.20;;;;;;5055204;28;20039;-77
2021/11/18 08:39:44;;;;;;;9.25;3.42;;;17.70;63.20;;;;;;5073439;28;20017;-77
2021/11/18 08:42:13;;;;;;;9.20;2.85;;;17.70;63.20;;;;;;5073154;28;20387;-77
2021/11/18 08:44:40;;;;;;;7.13;2.95;;;17.70;63.20;;;;;;5055454;28;20059;-77
2021/11/18 08:47:07;;;;;;;7.32;2.75;;;17.60;63.10;;;;;;5072961;28;20499;-77
2021/11/18 08:49:34;;;;;;;7.20;2.42;;;17.60;63.10;;;;;;5055161;28;20472;-76
2021/11/18 08:52:08;;;;;;;7.97;2.78;;;17.60;63.10;;;;;;5073377;28;20024;-77
2021/11/18 08:54:36;;;;;;;7.22;2.58;;;17.60;63.10;;;;;;5073272;28;20582;-77
2021/11/18 08:57:03;;;;;;;8.55;3.58;;;17.60;63.10;;;;;;5072900;28;20070;-76
2021/11/18 08:59:29;;;;;;;6.68;2.83;;;17.50;62.90;;;;;;5073393;28;20027;-77
2021/11/18 09:02:01;;;;;;;6.07;2.10;;;17.50;62.90;;;;;;5072865;28;20020;-77
2021/11/18 09:04:27;;;;;;;7.60;2.78;;;17.50;63.00;;;;;;5073228;28;20142;-77
2021/11/18 09:06:54;;;;;;;7.82;2.80;;;17.50;63.00;;;;;;5072748;28;20025;-77
2021/11/18 09:09:22;;;;;;;10.40;3.53;;;17.50;63.00;;;;;;5054716;28;20115;-76
2021/11/18 09:11:49;;;;;;;6.32;2.95;;;17.50;62.90;;;;;;5072840;28;20032;-76
2021/11/18 09:14:15;;;;;;;7.43;2.63;;;17.50;63.00;;;;;;5072460;28;20027;-76
2021/11/18 09:16:42;;;;;;;6.38;2.20;;;17.40;62.90;;;;;;5072667;28;20545;-77
2021/11/18 09:19:11;;;;;;;6.70;2.40;;;17.40;62.90;;;;;;5072464;28;20108;-77
2021/11/18 09:21:40;;;;;;;5.95;2.47;;;17.40;62.90;;;;;;5072621;28;20098;-77
2021/11/18 09:24:19;;;;;;;5.88;2.97;;;17.40;62.90;;;;;;5054439;28;20021;-77
2021/11/18 09:26:49;;;;;;;7.35;2.78;;;17.40;62.80;;;;;;5072444;28;20032;-77
2021/11/18 09:29:14;;;;;;;6.10;2.78;;;17.40;62.90;;;;;;5054436;28;20039;-77
2021/11/18 09:31:42;;;;;;;6.63;2.83;;;17.40;62.90;;;;;;5072546;28;20033;-77
2021/11/18 09:34:08;;;;;;;6.25;2.60;;;17.40;62.90;;;;;;5072071;28;20109;-77
2021/11/18 09:36:34;;;;;;;5.38;2.50;;;17.40;62.90;;;;;;5072241;28;20096;-76
2021/11/18 09:39:00;;;;;;;8.65;2.97;;;17.40;62.90;;;;;;5072607;28;20395;-77
2021/11/18 09:41:26;;;;;;;6.18;3.20;;;17.40;63.00;;;;;;5072644;28;20051;-77
2021/11/18 09:44:01;;;;;;;5.93;2.35;;;17.40;63.00;;;;;;5072337;28;20476;-77
2021/11/18 09:47:00;;;;;;;7.28;2.70;;;17.30;62.90;;;;;;5072324;28;20492;-76
2021/11/18 09:49:28;;;;;;;6.07;2.70;;;17.30;62.90;;;;;;5072192;28;20028;-77
2021/11/18 09:52:08;;;;;;;6.97;2.80;;;17.30;62.90;;;;;;5072063;28;20024;-77
2021/11/18 09:54:40;;;;;;;5.75;2.42;;;17.30;62.90;;;;;;5072148;28;20024;-77
2021/11/18 09:57:13;;;;;;;5.55;2.60;;;17.30;62.90;;;;;;5053892;28;20025;-77
2021/11/18 10:00:00;;;;;;;8.60;2.70;;;17.30;63.00;;;;;;5071994;28;20036;-77
2021/11/18 10:02:50;;;;;;;5.95;2.72;;;17.30;63.00;;;;;;5072078;28;20051;-77
2021/11/18 10:05:27;;;;;;;4.80;2.60;;;17.30;63.00;;;;;;5071437;28;20107;-77
2021/11/18 10:07:57;;;;;;;6.03;2.58;;;17.30;63.00;;;;;;5071694;28;20059;-76
2021/11/18 10:10:34;;;;;;;8.60;2.72;;;17.30;63.00;;;;;;5071735;28;20016;-77
2021/11/18 10:13:40;;;;;;;6.97;2.63;;;17.30;63.10;;;;;;5071329;28;20036;-77
2021/11/18 10:16:26;;;;;;;5.77;2.53;;;17.30;63.00;;;;;;5050238;28;20121;-76
2021/11/18 10:18:58;;;;;;;7.32;3.05;;;17.30;63.10;;;;;;5071646;28;20021;-77
2021/11/18 10:21:34;;;;;;;7.40;2.85;;;17.30;63.10;;;;;;5071340;28;20024;-76
2021/11/18 10:24:14;;;;;;;6.72;2.50;;;17.30;63.10;;;;;;5071810;28;20024;-77
2021/11/18 10:27:00;;;;;;;5.55;2.50;;;17.30;63.10;;;;;;5071543;28;20024;-76
2021/11/18 10:29:32;;;;;;;6.93;2.72;;;17.30;63.10;;;;;;5071915;28;20071;-77
2021/11/18 10:32:09;;;;;;;6.28;2.50;;;17.30;63.10;;;;;;5071743;28;20484;-77
2021/11/18 10:35:10;;;;;;;5.60;2.20;;;17.30;63.20;;;;;;5071267;28;20511;-77
2021/11/18 10:37:43;;;;;;;5.75;3.10;;;17.30;63.10;;;;;;5042625;28;20076;-76
2021/11/18 10:40:26;;;;;;;9.55;3.10;;;17.20;63.10;;;;;;5071157;28;20029;-77
2021/11/18 10:43:07;;;;;;;10.18;3.50;;;17.30;63.20;;;;;;5071395;28;20112;-77
2021/11/18 10:45:51;;;;;;;8.02;3.00;;;17.30;63.20;;;;;;5071099;28;20519;-76
2021/11/18 10:48:33;;;;;;;8.02;2.45;;;17.30;63.20;;;;;;5052975;28;20064;-77
2021/11/18 10:51:12;;;;;;;7.70;2.60;;;17.30;63.30;;;;;;5071480;28;20040;-77
2021/11/18 10:53:53;;;;;;;6.28;2.55;;;17.30;63.30;;;;;;5071254;28;20033;-77
2021/11/18 10:56:23;;;;;;;6.50;2.92;;;17.30;63.30;;;;;;5052850;28;20585;-77
2021/11/18 10:59:06;;;;;;;7.18;2.58;;;17.30;63.30;;;;;;5071112;28;20024;-76
2021/11/18 11:01:37;;;;;;;7.00;2.85;;;17.30;63.40;;;;;;5071306;28;20389;-76
2021/11/18 11:04:09;;;;;;;7.18;2.58;;;17.30;63.40;;;;;;5070756;28;20035;-76
2021/11/18 11:06:44;;;;;;;7.45;3.08;;;17.30;63.50;;;;;;5070934;28;20395;-76
2021/11/18 11:09:09;;;;;;;7.80;2.78;;;17.30;63.50;;;;;;5070817;28;20036;-75
2021/11/18 11:12:02;;;;;;;4.93;2.53;;;17.20;63.50;;;;;;5071111;28;20035;-76
2021/11/18 11:14:49;;;;;;;6.50;2.20;;;17.30;63.50;;;;;;5071551;28;20056;-76
2021/11/18 11:17:52;;;;;;;7.20;2.53;;;17.30;63.60;;;;;;5070754;28;20025;-77
2021/11/18 11:20:20;;;;;;;9.98;2.45;;;17.30;63.60;;;;;;5070711;28;20074;-76
2021/11/18 11:22:51;;;;;;;7.28;2.30;;;17.30;63.60;;;;;;5070870;28;20497;-76
2021/11/18 11:25:39;;;;;;;6.90;2.78;;;17.30;63.60;;;;;;5074243;28;20025;-76
2021/11/18 11:28:28;;;;;;;7.38;2.85;;;17.30;63.70;;;;;;5056582;28;20071;-76
2021/11/18 11:31:41;;;;;;;8.93;2.97;;;17.30;63.70;;;;;;5074750;28;20029;-76
2021/11/18 11:34:26;;;;;;;6.47;2.60;;;17.30;63.80;;;;;;5071301;28;20083;-76
2021/11/18 11:37:15;;;;;;;5.40;2.20;;;17.30;63.80;;;;;;5074694;28;20063;-76
2021/11/18 11:39:56;;;;;;;8.07;2.47;;;17.30;63.80;;;;;;5074595;28;20496;-76
2021/11/18 11:42:36;;;;;;;6.32;2.03;;;17.30;63.90;;;;;;5074306;28;20027;-76
2021/11/18 11:45:41;;;;;;;7.53;2.30;;;17.30;63.90;;;;;;5074220;28;20514;-76
2021/11/18 11:48:36;;;;;;;7.60;2.95;;;17.30;64.00;;;;;;5074020;28;20086;-76
2021/11/18 11:51:26;;;;;;;6.20;2.42;;;17.30;63.90;;;;;;5074175;28;20021;-76
2021/11/18 11:54:21;;;;;;;6.95;2.45;;;17.30;64.00;;;;;;5074265;28;20114;-76
2021/11/18 11:56:58;;;;;;;7.40;2.20;;;17.30;64.10;;;;;;5074206;28;20056;-78
2021/11/18 11:59:34;;;;;;;5.55;2.17;;;17.30;64.10;;;;;;5074023;28;20477;-78
2021/11/18 12:02:06;;;;;;;8.00;2.47;;;17.30;64.20;;;;;;5074548;28;20070;-78
2021/11/18 12:04:44;;;;;;;9.15;3.00;;;17.30;64.30;;;;;;5074331;28;20381;-75
2021/11/18 12:07:26;;;;;;;7.10;2.70;;;17.30;64.30;;;;;;5073679;28;20032;-76
2021/11/18 12:10:09;;;;;;;8.95;2.95;;;17.30;64.30;;;;;;5074040;28;20039;-76
2021/11/18 12:12:50;;;;;;;8.15;2.67;;;17.30;64.30;;;;;;5073975;28;20077;-75
2021/11/18 12:15:20;;;;;;;6.82;2.92;;;17.30;64.40;;;;;;5055447;28;20488;-75
2021/11/18 12:17:52;;;;;;;6.47;2.25;;;17.30;64.40;;;;;;5073920;28;20033;-76
2021/11/18 12:20:25;;;;;;;7.28;2.40;;;17.30;64.50;;;;;;5073431;28;20115;-76
2021/11/18 12:22:55;;;;;;;7.22;2.22;;;17.30;64.50;;;;;;5073726;28;20025;-75
2021/11/18 12:25:38;;;;;;;6.03;2.65;;;17.30;64.60;;;;;;5073539;28;20219;-76
2021/11/18 12:28:12;;;;;;;6.80;2.63;;;17.30;64.60;;;;;;5073434;28;20111;-76
2021/11/18 12:30:42;;;;;;;7.35;2.50;;;17.30;64.70;;;;;;5073691;28;20071;-76
2021/11/18 12:33:31;;;;;;;8.38;2.42;;;17.30;64.70;;;;;;5073407;28;20017;-76
2021/11/18 12:36:08;;;;;;;6.95;2.80;;;17.30;64.70;;;;;;5073173;28;20020;-76
2021/11/18 12:38:48;;;;;;;6.50;2.53;;;17.30;64.80;;;;;;5073642;28;20052;-76
2021/11/18 12:41:34;;;;;;;6.68;2.55;;;17.30;64.80;;;;;;5073342;28;20108;-76
2021/11/18 12:44:34;;;;;;;6.22;2.47;;;17.30;64.90;;;;;;5055461;28;20504;-76
2021/11/18 12:47:05;;;;;;;8.70;2.55;;;17.30;65.00;;;;;;5055251;28;20047;-76
2021/11/18 12:49:55;;;;;;;6.88;2.70;;;17.30;65.00;;;;;;5073537;28;20032;-76
2021/11/18 12:52:24;;;;;;;9.27;2.83;;;17.30;65.10;;;;;;5073002;28;20481;-76
2021/11/18 12:55:08;;;;;;;5.60;2.25;;;17.30;65.10;;;;;;5073195;28;20051;-76
2021/11/18 12:57:41;;;;;;;7.00;2.55;;;17.30;65.10;;;;;;5073271;28;20028;-76
2021/11/18 13:00:13;;;;;;;4.78;1.98;;;17.30;65.20;;;;;;5054689;28;20028;-76
2021/11/18 13:02:44;;;;;;;8.48;2.63;;;17.30;65.20;;;;;;5072870;28;20384;-76
2021/11/18 13:05:10;;;;;;;8.40;2.50;;;17.30;65.30;;;;;;5072798;28;20526;-76